sensor_id;sensor_type;location;lat;lon;timestamp;P1;durP1;ratioP1;P2;durP2;ratioP2
17340;SDS011;8788;49.930;8.660;2023-02-27T00:00:05;4.47;;;1.58;;
17340;SDS011;8788;49.930;8.660;2023-02-27T00:02:39;3.13;;;1.85;;
17340;SDS011;8788;49.930;8.660;2023-02-27T00:05:06;2.85;;;1.60;;
17340;SDS011;8788;49.930;8.660;2023-02-27T00:07:34;4.20;;;1.80;;
17340;SDS011;8788;49.930;8.660;2023-02-27T00:12:31;3.17;;;1.73;;
17340;SDS011;8788;49.930;8.660;2023-02-27T00:15:02;4.00;;;1.77;;
17340;SDS011;8788;49.930;8.660;2023-02-27T00:17:31;4.90;;;1.80;;
17340;SDS011;8788;49.930;8.660;2023-02-27T00:19:58;2.35;;;1.30;;
17340;SDS011;8788;49.930;8.660;2023-02-27T00:22:25;2.58;;;1.48;;
17340;SDS011;8788;49.930;8.660;2023-02-27T00:24:52;3.47;;;1.95;;
17340;SDS011;8788;49.930;8.660;2023-02-27T00:27:19;5.57;;;1.98;;
17340;SDS011;8788;49.930;8.660;2023-02-27T00:29:47;4.55;;;1.83;;
17340;SDS011;8788;49.930;8.660;2023-02-27T00:32:14;2.03;;;1.60;;
17340;SDS011;8788;49.930;8.660;2023-02-27T00:34:42;3.50;;;1.63;;
17340;SDS011;8788;49.930;8.660;2023-02-27T00:37:09;3.97;;;1.70;;
17340;SDS011;8788;49.930;8.660;2023-02-27T00:39:36;4.43;;;1.90;;
17340;SDS011;8788;49.930;8.660;2023-02-27T00:42:03;3.20;;;1.70;;
17340;SDS011;8788;49.930;8.660;2023-02-27T00:44:30;5.00;;;2.40;;
17340;SDS011;8788;49.930;8.660;2023-02-27T00:46:58;2.33;;;1.65;;
17340;SDS011;8788;49.930;8.660;2023-02-27T00:49:26;4.38;;;1.95;;
17340;SDS011;8788;49.930;8.660;2023-02-27T00:51:53;4.75;;;2.45;;
17340;SDS011;8788;49.930;8.660;2023-02-27T00:54:20;5.28;;;2.35;;
17340;SDS011;8788;49.930;8.660;2023-02-27T00:56:47;3.55;;;1.77;;
17340;SDS011;8788;49.930;8.660;2023-02-27T00:59:14;4.20;;;1.73;;
17340;SDS011;8788;49.930;8.660;2023-02-27T01:01:41;2.85;;;1.70;;
17340;SDS011;8788;49.930;8.660;2023-02-27T01:04:11;2.30;;;1.45;;
17340;SDS011;8788;49.930;8.660;2023-02-27T01:06:38;5.03;;;2.20;;
17340;SDS011;8788;49.930;8.660;2023-02-27T01:09:05;3.65;;;1.98;;
17340;SDS011;8788;49.930;8.660;2023-02-27T01:11:32;6.00;;;2.28;;
17340;SDS011;8788;49.930;8.660;2023-02-27T01:13:59;5.68;;;2.58;;
17340;SDS011;8788;49.930;8.660;2023-02-27T01:16:26;6.40;;;2.25;;
17340;SDS011;8788;49.930;8.660;2023-02-27T01:18:54;3.72;;;2.05;;
17340;SDS011;8788;49.930;8.660;2023-02-27T01:21:23;2.60;;;2.10;;
17340;SDS011;8788;49.930;8.660;2023-02-27T01:23:50;3.78;;;2.85;;
17340;SDS011;8788;49.930;8.660;2023-02-27T01:26:17;1.95;;;1.80;;
17340;SDS011;8788;49.930;8.660;2023-02-27T01:28:44;5.05;;;1.92;;
17340;SDS011;8788;49.930;8.660;2023-02-27T01:31:12;5.00;;;1.52;;
17340;SDS011;8788;49.930;8.660;2023-02-27T01:33:39;4.45;;;2.13;;
17340;SDS011;8788;49.930;8.660;2023-02-27T01:36:06;3.30;;;2.05;;
17340;SDS011;8788;49.930;8.660;2023-02-27T01:38:35;2.97;;;1.80;;
17340;SDS011;8788;49.930;8.660;2023-02-27T01:41:03;4.57;;;1.63;;
17340;SDS011;8788;49.930;8.660;2023-02-27T01:43:31;3.90;;;2.53;;
17340;SDS011;8788;49.930;8.660;2023-02-27T01:45:59;5.03;;;1.90;;
17340;SDS011;8788;49.930;8.660;2023-02-27T01:48:27;4.72;;;2.08;;
17340;SDS011;8788;49.930;8.660;2023-02-27T01:50:58;5.60;;;1.98;;
17340;SDS011;8788;49.930;8.660;2023-02-27T01:53:27;4.97;;;2.15;;
17340;SDS011;8788;49.930;8.660;2023-02-27T01:55:59;3.92;;;1.88;;
17340;SDS011;8788;49.930;8.660;2023-02-27T01:58:31;4.20;;;2.15;;
17340;SDS011;8788;49.930;8.660;2023-02-27T02:00:58;5.50;;;1.75;;
17340;SDS011;8788;49.930;8.660;2023-02-27T02:03:27;2.80;;;2.03;;
17340;SDS011;8788;49.930;8.660;2023-02-27T02:05:58;4.43;;;1.90;;
17340;SDS011;8788;49.930;8.660;2023-02-27T02:08:30;4.35;;;2.35;;
17340;SDS011;8788;49.930;8.660;2023-02-27T02:11:02;6.07;;;2.38;;
17340;SDS011;8788;49.930;8.660;2023-02-27T02:13:30;2.22;;;1.38;;
17340;SDS011;8788;49.930;8.660;2023-02-27T02:16:04;5.95;;;2.17;;
17340;SDS011;8788;49.930;8.660;2023-02-27T02:18:51;4.35;;;1.85;;
17340;SDS011;8788;49.930;8.660;2023-02-27T02:21:34;3.70;;;2.33;;
17340;SDS011;8788;49.930;8.660;2023-02-27T02:27:45;3.97;;;1.95;;
17340;SDS011;8788;49.930;8.660;2023-02-27T02:33:57;4.55;;;1.83;;
17340;SDS011;8788;49.930;8.660;2023-02-27T02:39:55;4.10;;;1.10;;
17340;SDS011;8788;49.930;8.660;2023-02-27T02:42:44;5.18;;;1.42;;
17340;SDS011;8788;49.930;8.660;2023-02-27T02:45:21;2.10;;;1.33;;
17340;SDS011;8788;49.930;8.660;2023-02-27T02:48:00;5.30;;;2.35;;
17340;SDS011;8788;49.930;8.660;2023-02-27T02:50:43;8.02;;;1.70;;
17340;SDS011;8788;49.930;8.660;2023-02-27T02:53:20;3.42;;;1.52;;
17340;SDS011;8788;49.930;8.660;2023-02-27T02:55:58;3.83;;;1.70;;
17340;SDS011;8788;49.930;8.660;2023-02-27T02:58:31;2.38;;;0.93;;
17340;SDS011;8788;49.930;8.660;2023-02-27T03:01:05;3.30;;;1.52;;
17340;SDS011;8788;49.930;8.660;2023-02-27T03:03:39;5.10;;;1.45;;
17340;SDS011;8788;49.930;8.660;2023-02-27T03:06:11;3.17;;;1.30;;
17340;SDS011;8788;49.930;8.660;2023-02-27T03:08:45;1.73;;;1.02;;
17340;SDS011;8788;49.930;8.660;2023-02-27T03:11:20;2.53;;;1.30;;
17340;SDS011;8788;49.930;8.660;2023-02-27T03:13:51;2.45;;;1.40;;
17340;SDS011;8788;49.930;8.660;2023-02-27T03:16:24;5.07;;;1.63;;
17340;SDS011;8788;49.930;8.660;2023-02-27T03:18:55;1.98;;;1.05;;
17340;SDS011;8788;49.930;8.660;2023-02-27T03:21:29;3.28;;;1.30;;
17340;SDS011;8788;49.930;8.660;2023-02-27T03:24:02;4.60;;;1.83;;
17340;SDS011;8788;49.930;8.660;2023-02-27T03:26:36;2.28;;;1.10;;
17340;SDS011;8788;49.930;8.660;2023-02-27T03:29:07;3.08;;;1.45;;
17340;SDS011;8788;49.930;8.660;2023-02-27T03:31:37;3.20;;;1.27;;
17340;SDS011;8788;49.930;8.660;2023-02-27T03:34:10;1.95;;;1.20;;
17340;SDS011;8788;49.930;8.660;2023-02-27T03:36:43;2.90;;;1.33;;
17340;SDS011;8788;49.930;8.660;2023-02-27T03:39:18;1.45;;;1.20;;
17340;SDS011;8788;49.930;8.660;2023-02-27T03:41:55;2.85;;;1.20;;
17340;SDS011;8788;49.930;8.660;2023-02-27T03:45:05;3.50;;;1.05;;
17340;SDS011;8788;49.930;8.660;2023-02-27T03:47:38;3.03;;;1.05;;
17340;SDS011;8788;49.930;8.660;2023-02-27T03:50:06;2.15;;;1.10;;
17340;SDS011;8788;49.930;8.660;2023-02-27T03:52:34;2.70;;;1.17;;
17340;SDS011;8788;49.930;8.660;2023-02-27T03:55:02;2.05;;;1.08;;
17340;SDS011;8788;49.930;8.660;2023-02-27T03:57:36;2.25;;;1.00;;
17340;SDS011;8788;49.930;8.660;2023-02-27T04:00:04;5.07;;;1.40;;
17340;SDS011;8788;49.930;8.660;2023-02-27T04:02:43;1.85;;;0.88;;
17340;SDS011;8788;49.930;8.660;2023-02-27T04:05:16;4.32;;;1.15;;
17340;SDS011;8788;49.930;8.660;2023-02-27T04:07:51;2.05;;;1.02;;
17340;SDS011;8788;49.930;8.660;2023-02-27T04:10:31;2.28;;;1.00;;
17340;SDS011;8788;49.930;8.660;2023-02-27T04:13:38;2.50;;;0.80;;
17340;SDS011;8788;49.930;8.660;2023-02-27T04:19:17;4.60;;;0.95;;
17340;SDS011;8788;49.930;8.660;2023-02-27T04:21:56;1.73;;;0.93;;
17340;SDS011;8788;49.930;8.660;2023-02-27T04:24:33;4.25;;;0.90;;
17340;SDS011;8788;49.930;8.660;2023-02-27T04:27:06;1.45;;;1.20;;
17340;SDS011;8788;49.930;8.660;2023-02-27T04:29:44;1.30;;;0.90;;
17340;SDS011;8788;49.930;8.660;2023-02-27T04:32:20;1.85;;;0.77;;
17340;SDS011;8788;49.930;8.660;2023-02-27T04:34:55;4.50;;;1.85;;
17340;SDS011;8788;49.930;8.660;2023-02-27T04:37:26;1.05;;;1.00;;
17340;SDS011;8788;49.930;8.660;2023-02-27T04:40:00;1.70;;;0.82;;
17340;SDS011;8788;49.930;8.660;2023-02-27T04:42:33;1.00;;;0.90;;
17340;SDS011;8788;49.930;8.660;2023-02-27T04:45:05;1.80;;;0.93;;
17340;SDS011;8788;49.930;8.660;2023-02-27T04:47:37;1.70;;;0.90;;
17340;SDS011;8788;49.930;8.660;2023-02-27T04:50:10;1.92;;;0.88;;
17340;SDS011;8788;49.930;8.660;2023-02-27T04:52:44;3.38;;;1.17;;
17340;SDS011;8788;49.930;8.660;2023-02-27T04:55:18;2.72;;;1.13;;
17340;SDS011;8788;49.930;8.660;2023-02-27T04:57:50;1.83;;;0.75;;
17340;SDS011;8788;49.930;8.660;2023-02-27T05:00:22;1.55;;;0.88;;
17340;SDS011;8788;49.930;8.660;2023-02-27T05:02:53;2.42;;;1.55;;
17340;SDS011;8788;49.930;8.660;2023-02-27T05:05:25;0.77;;;0.77;;
17340;SDS011;8788;49.930;8.660;2023-02-27T05:07:57;3.17;;;1.17;;
17340;SDS011;8788;49.930;8.660;2023-02-27T05:10:30;2.05;;;0.80;;
17340;SDS011;8788;49.930;8.660;2023-02-27T05:13:02;2.72;;;0.60;;
17340;SDS011;8788;49.930;8.660;2023-02-27T05:15:34;1.98;;;1.17;;
17340;SDS011;8788;49.930;8.660;2023-02-27T05:18:08;2.50;;;0.77;;
17340;SDS011;8788;49.930;8.660;2023-02-27T05:20:41;1.20;;;0.90;;
17340;SDS011;8788;49.930;8.660;2023-02-27T05:23:18;0.93;;;0.80;;
17340;SDS011;8788;49.930;8.660;2023-02-27T05:25:52;0.63;;;0.47;;
17340;SDS011;8788;49.930;8.660;2023-02-27T05:28:27;3.05;;;0.70;;
17340;SDS011;8788;49.930;8.660;2023-02-27T05:31:02;1.27;;;1.15;;
17340;SDS011;8788;49.930;8.660;2023-02-27T05:33:35;1.13;;;0.60;;
17340;SDS011;8788;49.930;8.660;2023-02-27T05:36:09;1.35;;;0.90;;
17340;SDS011;8788;49.930;8.660;2023-02-27T05:38:41;0.85;;;0.70;;
17340;SDS011;8788;49.930;8.660;2023-02-27T05:41:14;1.63;;;1.05;;
17340;SDS011;8788;49.930;8.660;2023-02-27T05:43:45;1.98;;;0.95;;
17340;SDS011;8788;49.930;8.660;2023-02-27T05:46:18;1.25;;;0.93;;
17340;SDS011;8788;49.930;8.660;2023-02-27T05:48:51;1.25;;;1.00;;
17340;SDS011;8788;49.930;8.660;2023-02-27T05:51:20;3.20;;;0.65;;
17340;SDS011;8788;49.930;8.660;2023-02-27T05:53:56;0.73;;;0.68;;
17340;SDS011;8788;49.930;8.660;2023-02-27T05:56:28;0.70;;;0.65;;
17340;SDS011;8788;49.930;8.660;2023-02-27T05:58:59;1.75;;;0.55;;
17340;SDS011;8788;49.930;8.660;2023-02-27T06:01:31;1.85;;;0.68;;
17340;SDS011;8788;49.930;8.660;2023-02-27T06:03:59;3.42;;;1.05;;
17340;SDS011;8788;49.930;8.660;2023-02-27T06:06:26;3.17;;;1.08;;
17340;SDS011;8788;49.930;8.660;2023-02-27T06:08:55;1.42;;;0.82;;
17340;SDS011;8788;49.930;8.660;2023-02-27T06:11:22;1.73;;;0.98;;
17340;SDS011;8788;49.930;8.660;2023-02-27T06:13:49;1.88;;;0.65;;
17340;SDS011;8788;49.930;8.660;2023-02-27T06:16:16;2.38;;;1.13;;
17340;SDS011;8788;49.930;8.660;2023-02-27T06:18:45;3.05;;;1.45;;
17340;SDS011;8788;49.930;8.660;2023-02-27T06:21:12;1.92;;;1.02;;
17340;SDS011;8788;49.930;8.660;2023-02-27T06:23:39;0.77;;;0.77;;
17340;SDS011;8788;49.930;8.660;2023-02-27T06:26:06;2.55;;;1.08;;
17340;SDS011;8788;49.930;8.660;2023-02-27T06:28:37;3.95;;;1.00;;
17340;SDS011;8788;49.930;8.660;2023-02-27T06:31:05;0.93;;;0.50;;
17340;SDS011;8788;49.930;8.660;2023-02-27T06:33:32;1.13;;;0.88;;
17340;SDS011;8788;49.930;8.660;2023-02-27T06:36:01;2.38;;;1.20;;
17340;SDS011;8788;49.930;8.660;2023-02-27T06:38:28;1.80;;;1.02;;
17340;SDS011;8788;49.930;8.660;2023-02-27T06:40:55;2.10;;;1.10;;
17340;SDS011;8788;49.930;8.660;2023-02-27T06:43:23;1.15;;;0.98;;
17340;SDS011;8788;49.930;8.660;2023-02-27T06:45:52;1.60;;;0.88;;
17340;SDS011;8788;49.930;8.660;2023-02-27T06:48:19;2.13;;;1.30;;
17340;SDS011;8788;49.930;8.660;2023-02-27T06:50:49;5.15;;;1.05;;
17340;SDS011;8788;49.930;8.660;2023-02-27T06:53:19;2.88;;;1.10;;
17340;SDS011;8788;49.930;8.660;2023-02-27T06:55:46;1.77;;;1.15;;
17340;SDS011;8788;49.930;8.660;2023-02-27T06:58:13;1.13;;;0.85;;
17340;SDS011;8788;49.930;8.660;2023-02-27T07:00:40;3.78;;;2.20;;
17340;SDS011;8788;49.930;8.660;2023-02-27T07:03:08;3.22;;;1.33;;
17340;SDS011;8788;49.930;8.660;2023-02-27T07:05:35;1.38;;;1.10;;
17340;SDS011;8788;49.930;8.660;2023-02-27T07:08:02;6.32;;;1.60;;
17340;SDS011;8788;49.930;8.660;2023-02-27T07:10:31;1.23;;;0.93;;
17340;SDS011;8788;49.930;8.660;2023-02-27T07:12:58;1.52;;;0.85;;
17340;SDS011;8788;49.930;8.660;2023-02-27T07:15:25;1.35;;;1.17;;
17340;SDS011;8788;49.930;8.660;2023-02-27T07:17:52;1.42;;;0.80;;
17340;SDS011;8788;49.930;8.660;2023-02-27T07:20:19;1.52;;;0.70;;
17340;SDS011;8788;49.930;8.660;2023-02-27T07:22:47;1.25;;;0.90;;
17340;SDS011;8788;49.930;8.660;2023-02-27T07:25:15;1.10;;;0.77;;
17340;SDS011;8788;49.930;8.660;2023-02-27T07:27:43;1.35;;;1.13;;
17340;SDS011;8788;49.930;8.660;2023-02-27T07:30:13;0.90;;;0.70;;
17340;SDS011;8788;49.930;8.660;2023-02-27T07:32:41;1.33;;;0.85;;
17340;SDS011;8788;49.930;8.660;2023-02-27T07:35:08;1.42;;;0.80;;
17340;SDS011;8788;49.930;8.660;2023-02-27T07:37:36;1.17;;;0.90;;
17340;SDS011;8788;49.930;8.660;2023-02-27T07:40:03;1.65;;;0.95;;
17340;SDS011;8788;49.930;8.660;2023-02-27T07:42:32;2.97;;;0.90;;
17340;SDS011;8788;49.930;8.660;2023-02-27T07:45:01;1.48;;;0.98;;
17340;SDS011;8788;49.930;8.660;2023-02-27T07:47:28;0.93;;;0.60;;
17340;SDS011;8788;49.930;8.660;2023-02-27T07:49:55;2.75;;;0.98;;
17340;SDS011;8788;49.930;8.660;2023-02-27T07:52:23;1.88;;;0.82;;
17340;SDS011;8788;49.930;8.660;2023-02-27T07:54:50;1.63;;;0.68;;
17340;SDS011;8788;49.930;8.660;2023-02-27T07:57:17;1.02;;;0.90;;
17340;SDS011;8788;49.930;8.660;2023-02-27T07:59:44;2.28;;;0.85;;
17340;SDS011;8788;49.930;8.660;2023-02-27T08:02:13;1.90;;;0.68;;
17340;SDS011;8788;49.930;8.660;2023-02-27T08:04:41;1.15;;;0.75;;
17340;SDS011;8788;49.930;8.660;2023-02-27T08:07:08;2.30;;;0.95;;
17340;SDS011;8788;49.930;8.660;2023-02-27T08:09:35;1.30;;;0.88;;
17340;SDS011;8788;49.930;8.660;2023-02-27T08:12:02;4.28;;;0.82;;
17340;SDS011;8788;49.930;8.660;2023-02-27T08:14:29;1.33;;;1.13;;
17340;SDS011;8788;49.930;8.660;2023-02-27T08:16:56;2.50;;;1.10;;
17340;SDS011;8788;49.930;8.660;2023-02-27T08:19:25;1.65;;;0.98;;
17340;SDS011;8788;49.930;8.660;2023-02-27T08:21:52;0.77;;;0.70;;
17340;SDS011;8788;49.930;8.660;2023-02-27T08:24:20;2.10;;;1.00;;
17340;SDS011;8788;49.930;8.660;2023-02-27T08:26:47;0.73;;;0.70;;
17340;SDS011;8788;49.930;8.660;2023-02-27T08:29:14;1.85;;;0.93;;
17340;SDS011;8788;49.930;8.660;2023-02-27T08:31:41;1.10;;;1.00;;
17340;SDS011;8788;49.930;8.660;2023-02-27T08:34:08;2.20;;;1.02;;
17340;SDS011;8788;49.930;8.660;2023-02-27T08:36:37;1.73;;;0.93;;
17340;SDS011;8788;49.930;8.660;2023-02-27T08:39:04;0.90;;;0.70;;
17340;SDS011;8788;49.930;8.660;2023-02-27T08:41:33;0.82;;;0.82;;
17340;SDS011;8788;49.930;8.660;2023-02-27T08:44:00;1.23;;;1.08;;
17340;SDS011;8788;49.930;8.660;2023-02-27T08:46:27;3.10;;;1.25;;
17340;SDS011;8788;49.930;8.660;2023-02-27T08:48:54;2.80;;;1.33;;
17340;SDS011;8788;49.930;8.660;2023-02-27T08:51:21;2.80;;;0.75;;
17340;SDS011;8788;49.930;8.660;2023-02-27T08:53:50;2.42;;;1.00;;
17340;SDS011;8788;49.930;8.660;2023-02-27T08:56:19;1.25;;;1.00;;
17340;SDS011;8788;49.930;8.660;2023-02-27T08:58:46;2.58;;;0.98;;
17340;SDS011;8788;49.930;8.660;2023-02-27T09:01:13;3.35;;;1.30;;
17340;SDS011;8788;49.930;8.660;2023-02-27T09:03:40;3.22;;;0.90;;
17340;SDS011;8788;49.930;8.660;2023-02-27T09:06:07;1.08;;;0.82;;
17340;SDS011;8788;49.930;8.660;2023-02-27T09:08:34;1.50;;;1.00;;
17340;SDS011;8788;49.930;8.660;2023-02-27T09:11:03;2.67;;;1.10;;
17340;SDS011;8788;49.930;8.660;2023-02-27T09:13:30;3.17;;;1.08;;
17340;SDS011;8788;49.930;8.660;2023-02-27T09:15:57;0.77;;;0.77;;
17340;SDS011;8788;49.930;8.660;2023-02-27T09:18:24;2.95;;;0.60;;
17340;SDS011;8788;49.930;8.660;2023-02-27T09:20:51;1.38;;;1.27;;
17340;SDS011;8788;49.930;8.660;2023-02-27T09:23:20;3.15;;;0.70;;
17340;SDS011;8788;49.930;8.660;2023-02-27T09:25:47;1.35;;;1.25;;
17340;SDS011;8788;49.930;8.660;2023-02-27T09:28:16;1.08;;;0.80;;
17340;SDS011;8788;49.930;8.660;2023-02-27T09:30:44;0.90;;;0.88;;
17340;SDS011;8788;49.930;8.660;2023-02-27T09:33:11;1.55;;;0.93;;
17340;SDS011;8788;49.930;8.660;2023-02-27T09:35:39;0.80;;;0.60;;
17340;SDS011;8788;49.930;8.660;2023-02-27T09:38:06;1.33;;;0.80;;
17340;SDS011;8788;49.930;8.660;2023-02-27T09:40:36;1.17;;;0.63;;
17340;SDS011;8788;49.930;8.660;2023-02-27T09:43:07;0.95;;;0.80;;
17340;SDS011;8788;49.930;8.660;2023-02-27T09:45:39;1.38;;;0.80;;
17340;SDS011;8788;49.930;8.660;2023-02-27T09:48:07;1.42;;;1.00;;
17340;SDS011;8788;49.930;8.660;2023-02-27T09:50:41;1.00;;;0.73;;
17340;SDS011;8788;49.930;8.660;2023-02-27T09:53:10;1.65;;;0.60;;
17340;SDS011;8788;49.930;8.660;2023-02-27T09:55:41;0.82;;;0.73;;
17340;SDS011;8788;49.930;8.660;2023-02-27T09:58:13;1.50;;;0.68;;
17340;SDS011;8788;49.930;8.660;2023-02-27T10:01:03;2.85;;;0.90;;
17340;SDS011;8788;49.930;8.660;2023-02-27T10:03:43;1.40;;;0.70;;
17340;SDS011;8788;49.930;8.660;2023-02-27T10:06:38;0.77;;;0.77;;
17340;SDS011;8788;49.930;8.660;2023-02-27T10:09:13;0.70;;;0.70;;
17340;SDS011;8788;49.930;8.660;2023-02-27T10:11:56;0.70;;;0.70;;
17340;SDS011;8788;49.930;8.660;2023-02-27T10:14:37;1.20;;;0.68;;
17340;SDS011;8788;49.930;8.660;2023-02-27T10:17:10;0.60;;;0.60;;
17340;SDS011;8788;49.930;8.660;2023-02-27T10:19:43;1.50;;;0.80;;
17340;SDS011;8788;49.930;8.660;2023-02-27T10:22:13;0.60;;;0.60;;
17340;SDS011;8788;49.930;8.660;2023-02-27T10:24:46;2.15;;;0.90;;
17340;SDS011;8788;49.930;8.660;2023-02-27T10:27:18;1.90;;;0.85;;
17340;SDS011;8788;49.930;8.660;2023-02-27T10:29:46;0.68;;;0.52;;
17340;SDS011;8788;49.930;8.660;2023-02-27T10:32:16;0.82;;;0.82;;
17340;SDS011;8788;49.930;8.660;2023-02-27T10:34:49;0.50;;;0.50;;
17340;SDS011;8788;49.930;8.660;2023-02-27T10:37:21;0.50;;;0.50;;
17340;SDS011;8788;49.930;8.660;2023-02-27T10:39:52;0.50;;;0.50;;
17340;SDS011;8788;49.930;8.660;2023-02-27T10:42:22;0.60;;;0.60;;
17340;SDS011;8788;49.930;8.660;2023-02-27T10:44:51;0.70;;;0.70;;
17340;SDS011;8788;49.930;8.660;2023-02-27T10:47:21;1.05;;;0.55;;
17340;SDS011;8788;49.930;8.660;2023-02-27T10:49:50;0.77;;;0.70;;
17340;SDS011;8788;49.930;8.660;2023-02-27T10:52:19;0.57;;;0.57;;
17340;SDS011;8788;49.930;8.660;2023-02-27T10:54:47;1.13;;;0.88;;
17340;SDS011;8788;49.930;8.660;2023-02-27T10:57:18;0.52;;;0.52;;
17340;SDS011;8788;49.930;8.660;2023-02-27T10:59:52;0.85;;;0.60;;
17340;SDS011;8788;49.930;8.660;2023-02-27T11:02:25;0.80;;;0.50;;
17340;SDS011;8788;49.930;8.660;2023-02-27T11:04:58;0.73;;;0.50;;
17340;SDS011;8788;49.930;8.660;2023-02-27T11:07:29;0.73;;;0.63;;
17340;SDS011;8788;49.930;8.660;2023-02-27T11:10:04;0.80;;;0.52;;
17340;SDS011;8788;49.930;8.660;2023-02-27T11:12:42;1.27;;;0.70;;
17340;SDS011;8788;49.930;8.660;2023-02-27T11:15:25;0.68;;;0.60;;
17340;SDS011;8788;49.930;8.660;2023-02-27T11:17:54;1.98;;;0.60;;
17340;SDS011;8788;49.930;8.660;2023-02-27T11:20:46;1.50;;;0.68;;
17340;SDS011;8788;49.930;8.660;2023-02-27T11:23:16;1.08;;;0.65;;
17340;SDS011;8788;49.930;8.660;2023-02-27T11:25:45;0.85;;;0.50;;
17340;SDS011;8788;49.930;8.660;2023-02-27T11:28:14;1.05;;;0.60;;
17340;SDS011;8788;49.930;8.660;2023-02-27T11:30:59;0.30;;;0.30;;
17340;SDS011;8788;49.930;8.660;2023-02-27T11:33:30;0.70;;;0.65;;
17340;SDS011;8788;49.930;8.660;2023-02-27T11:36:00;0.50;;;0.40;;
17340;SDS011;8788;49.930;8.660;2023-02-27T11:38:28;0.40;;;0.40;;
17340;SDS011;8788;49.930;8.660;2023-02-27T11:40:59;0.20;;;0.20;;
17340;SDS011;8788;49.930;8.660;2023-02-27T11:43:29;0.30;;;0.30;;
17340;SDS011;8788;49.930;8.660;2023-02-27T11:45:58;0.45;;;0.43;;
17340;SDS011;8788;49.930;8.660;2023-02-27T11:48:29;1.20;;;0.40;;
17340;SDS011;8788;49.930;8.660;2023-02-27T11:51:06;0.68;;;0.63;;
17340;SDS011;8788;49.930;8.660;2023-02-27T11:53:57;0.32;;;0.32;;
17340;SDS011;8788;49.930;8.660;2023-02-27T11:56:36;0.52;;;0.35;;
17340;SDS011;8788;49.930;8.660;2023-02-27T11:59:12;0.50;;;0.50;;
17340;SDS011;8788;49.930;8.660;2023-02-27T12:01:48;1.50;;;0.68;;
17340;SDS011;8788;49.930;8.660;2023-02-27T12:04:22;0.40;;;0.40;;
17340;SDS011;8788;49.930;8.660;2023-02-27T12:06:54;0.30;;;0.30;;
17340;SDS011;8788;49.930;8.660;2023-02-27T12:09:31;0.45;;;0.40;;
17340;SDS011;8788;49.930;8.660;2023-02-27T12:12:04;0.60;;;0.38;;
17340;SDS011;8788;49.930;8.660;2023-02-27T12:14:37;0.30;;;0.30;;
17340;SDS011;8788;49.930;8.660;2023-02-27T12:17:13;0.52;;;0.47;;
17340;SDS011;8788;49.930;8.660;2023-02-27T12:19:50;0.90;;;0.45;;
17340;SDS011;8788;49.930;8.660;2023-02-27T12:22:33;0.25;;;0.25;;
17340;SDS011;8788;49.930;8.660;2023-02-27T12:25:04;1.35;;;0.73;;
17340;SDS011;8788;49.930;8.660;2023-02-27T12:27:39;0.40;;;0.30;;
17340;SDS011;8788;49.930;8.660;2023-02-27T12:30:12;0.63;;;0.50;;
17340;SDS011;8788;49.930;8.660;2023-02-27T12:32:44;0.40;;;0.40;;
17340;SDS011;8788;49.930;8.660;2023-02-27T12:35:17;2.17;;;0.40;;
17340;SDS011;8788;49.930;8.660;2023-02-27T12:37:49;0.85;;;0.50;;
17340;SDS011;8788;49.930;8.660;2023-02-27T12:40:17;0.38;;;0.38;;
17340;SDS011;8788;49.930;8.660;2023-02-27T12:42:58;1.02;;;0.50;;
17340;SDS011;8788;49.930;8.660;2023-02-27T12:45:58;1.20;;;0.52;;
17340;SDS011;8788;49.930;8.660;2023-02-27T12:48:36;0.45;;;0.30;;
17340;SDS011;8788;49.930;8.660;2023-02-27T12:51:20;0.38;;;0.38;;
17340;SDS011;8788;49.930;8.660;2023-02-27T12:54:02;0.55;;;0.30;;
17340;SDS011;8788;49.930;8.660;2023-02-27T12:56:44;0.40;;;0.30;;
17340;SDS011;8788;49.930;8.660;2023-02-27T12:59:26;0.25;;;0.20;;
17340;SDS011;8788;49.930;8.660;2023-02-27T13:02:12;0.57;;;0.30;;
17340;SDS011;8788;49.930;8.660;2023-02-27T13:04:55;0.82;;;0.60;;
17340;SDS011;8788;49.930;8.660;2023-02-27T13:07:32;0.50;;;0.50;;
17340;SDS011;8788;49.930;8.660;2023-02-27T13:10:04;2.25;;;0.40;;
17340;SDS011;8788;49.930;8.660;2023-02-27T13:12:42;0.38;;;0.38;;
17340;SDS011;8788;49.930;8.660;2023-02-27T13:15:17;0.30;;;0.30;;
17340;SDS011;8788;49.930;8.660;2023-02-27T13:17:50;2.00;;;0.55;;
17340;SDS011;8788;49.930;8.660;2023-02-27T13:20:25;0.75;;;0.35;;
17340;SDS011;8788;49.930;8.660;2023-02-27T13:23:01;1.00;;;0.30;;
17340;SDS011;8788;49.930;8.660;2023-02-27T13:25:37;0.60;;;0.52;;
17340;SDS011;8788;49.930;8.660;2023-02-27T13:28:06;0.38;;;0.38;;
17340;SDS011;8788;49.930;8.660;2023-02-27T13:30:40;0.30;;;0.30;;
17340;SDS011;8788;49.930;8.660;2023-02-27T13:33:13;0.50;;;0.50;;
17340;SDS011;8788;49.930;8.660;2023-02-27T13:35:48;0.38;;;0.38;;
17340;SDS011;8788;49.930;8.660;2023-02-27T13:38:31;0.43;;;0.40;;
17340;SDS011;8788;49.930;8.660;2023-02-27T13:53:18;0.50;;;0.40;;
17340;SDS011;8788;49.930;8.660;2023-02-27T13:55:51;0.93;;;0.65;;
17340;SDS011;8788;49.930;8.660;2023-02-27T13:58:24;2.92;;;0.60;;
17340;SDS011;8788;49.930;8.660;2023-02-27T14:00:55;0.40;;;0.38;;
17340;SDS011;8788;49.930;8.660;2023-02-27T14:03:25;2.10;;;0.70;;
17340;SDS011;8788;49.930;8.660;2023-02-27T14:05:55;0.65;;;0.43;;
17340;SDS011;8788;49.930;8.660;2023-02-27T14:08:26;2.45;;;0.60;;
17340;SDS011;8788;49.930;8.660;2023-02-27T14:11:00;2.33;;;0.60;;
17340;SDS011;8788;49.930;8.660;2023-02-27T14:13:57;3.22;;;0.70;;
17340;SDS011;8788;49.930;8.660;2023-02-27T14:22:33;0.47;;;0.40;;
17340;SDS011;8788;49.930;8.660;2023-02-27T14:25:18;1.95;;;0.60;;
17340;SDS011;8788;49.930;8.660;2023-02-27T14:27:51;0.50;;;0.45;;
17340;SDS011;8788;49.930;8.660;2023-02-27T14:30:23;0.90;;;0.55;;
17340;SDS011;8788;49.930;8.660;2023-02-27T14:32:54;0.63;;;0.40;;
17340;SDS011;8788;49.930;8.660;2023-02-27T14:35:23;0.70;;;0.52;;
17340;SDS011;8788;49.930;8.660;2023-02-27T14:37:50;0.50;;;0.50;;
17340;SDS011;8788;49.930;8.660;2023-02-27T14:40:20;0.73;;;0.55;;
17340;SDS011;8788;49.930;8.660;2023-02-27T14:42:53;0.43;;;0.30;;
17340;SDS011;8788;49.930;8.660;2023-02-27T14:45:28;0.77;;;0.60;;
17340;SDS011;8788;49.930;8.660;2023-02-27T14:47:56;0.30;;;0.30;;
17340;SDS011;8788;49.930;8.660;2023-02-27T14:50:25;1.77;;;0.43;;
17340;SDS011;8788;49.930;8.660;2023-02-27T14:52:56;0.60;;;0.60;;
17340;SDS011;8788;49.930;8.660;2023-02-27T14:55:24;0.40;;;0.40;;
17340;SDS011;8788;49.930;8.660;2023-02-27T14:57:56;0.60;;;0.40;;
17340;SDS011;8788;49.930;8.660;2023-02-27T15:00:33;3.83;;;0.50;;
17340;SDS011;8788;49.930;8.660;2023-02-27T15:03:07;0.80;;;0.45;;
17340;SDS011;8788;49.930;8.660;2023-02-27T15:05:42;0.98;;;0.50;;
17340;SDS011;8788;49.930;8.660;2023-02-27T15:08:17;0.68;;;0.40;;
17340;SDS011;8788;49.930;8.660;2023-02-27T15:10:46;0.30;;;0.30;;
17340;SDS011;8788;49.930;8.660;2023-02-27T15:13:20;0.30;;;0.30;;
17340;SDS011;8788;49.930;8.660;2023-02-27T15:15:50;0.57;;;0.35;;
17340;SDS011;8788;49.930;8.660;2023-02-27T15:18:38;0.30;;;0.30;;
17340;SDS011;8788;49.930;8.660;2023-02-27T15:21:10;0.40;;;0.30;;
17340;SDS011;8788;49.930;8.660;2023-02-27T15:23:40;0.65;;;0.40;;
17340;SDS011;8788;49.930;8.660;2023-02-27T15:26:09;0.63;;;0.40;;
17340;SDS011;8788;49.930;8.660;2023-02-27T15:28:39;0.30;;;0.30;;
17340;SDS011;8788;49.930;8.660;2023-02-27T15:31:07;2.13;;;0.50;;
17340;SDS011;8788;49.930;8.660;2023-02-27T15:33:39;0.60;;;0.60;;
17340;SDS011;8788;49.930;8.660;2023-02-27T15:36:13;0.32;;;0.32;;
17340;SDS011;8788;49.930;8.660;2023-02-27T15:38:44;0.38;;;0.30;;
17340;SDS011;8788;49.930;8.660;2023-02-27T15:41:11;0.50;;;0.40;;
17340;SDS011;8788;49.930;8.660;2023-02-27T15:43:41;1.27;;;0.65;;
17340;SDS011;8788;49.930;8.660;2023-02-27T15:46:08;1.35;;;0.65;;
17340;SDS011;8788;49.930;8.660;2023-02-27T15:48:35;1.38;;;0.40;;
17340;SDS011;8788;49.930;8.660;2023-02-27T15:51:02;0.40;;;0.40;;
17340;SDS011;8788;49.930;8.660;2023-02-27T15:53:30;2.25;;;0.77;;
17340;SDS011;8788;49.930;8.660;2023-02-27T15:55:58;0.75;;;0.47;;
17340;SDS011;8788;49.930;8.660;2023-02-27T15:58:32;1.58;;;0.40;;
17340;SDS011;8788;49.930;8.660;2023-02-27T16:01:03;0.70;;;0.32;;